sensor_id;sensor_type;location;lat;lon;timestamp;P1;durP1;ratioP1;P2;durP2;ratioP2
56991;SDS011;42885;49.754;18.636;2022-07-06T00:01:53;37.67;;;30.30;;
56991;SDS011;42885;49.754;18.636;2022-07-06T00:04:24;40.08;;;32.80;;
56991;SDS011;42885;49.754;18.636;2022-07-06T00:06:55;36.20;;;30.37;;
56991;SDS011;42885;49.754;18.636;2022-07-06T00:09:26;37.70;;;31.25;;
56991;SDS011;42885;49.754;18.636;2022-07-06T00:11:57;34.38;;;28.50;;
56991;SDS011;42885;49.754;18.636;2022-07-06T00:14:28;36.10;;;29.42;;
56991;SDS011;42885;49.754;18.636;2022-07-06T00:16:59;37.15;;;30.65;;
56991;SDS011;42885;49.754;18.636;2022-07-06T00:19:30;34.00;;;30.35;;
56991;SDS011;42885;49.754;18.636;2022-07-06T00:22:01;35.40;;;30.02;;
56991;SDS011;42885;49.754;18.636;2022-07-06T00:24:32;34.50;;;30.70;;
56991;SDS011;42885;49.754;18.636;2022-07-06T00:27:03;32.73;;;28.83;;
56991;SDS011;42885;49.754;18.636;2022-07-06T00:29:34;34.65;;;28.98;;
56991;SDS011;42885;49.754;18.636;2022-07-06T00:32:06;29.27;;;26.12;;
56991;SDS011;42885;49.754;18.636;2022-07-06T00:34:37;32.25;;;25.90;;
56991;SDS011;42885;49.754;18.636;2022-07-06T00:37:12;30.10;;;25.77;;
56991;SDS011;42885;49.754;18.636;2022-07-06T00:39:44;31.45;;;25.45;;
56991;SDS011;42885;49.754;18.636;2022-07-06T00:42:15;31.55;;;26.05;;
56991;SDS011;42885;49.754;18.636;2022-07-06T00:44:46;31.65;;;26.42;;
56991;SDS011;42885;49.754;18.636;2022-07-06T00:47:17;29.65;;;26.40;;
56991;SDS011;42885;49.754;18.636;2022-07-06T00:49:48;30.43;;;26.05;;
56991;SDS011;42885;49.754;18.636;2022-07-06T00:52:36;28.85;;;25.82;;
56991;SDS011;42885;49.754;18.636;2022-07-06T00:55:08;32.55;;;25.27;;
56991;SDS011;42885;49.754;18.636;2022-07-06T00:57:40;29.50;;;26.40;;
56991;SDS011;42885;49.754;18.636;2022-07-06T01:00:12;30.55;;;27.37;;
56991;SDS011;42885;49.754;18.636;2022-07-06T01:02:45;31.45;;;28.07;;
56991;SDS011;42885;49.754;18.636;2022-07-06T01:05:17;33.53;;;29.80;;
56991;SDS011;42885;49.754;18.636;2022-07-06T01:07:49;33.53;;;29.82;;
56991;SDS011;42885;49.754;18.636;2022-07-06T01:10:21;35.17;;;30.25;;
56991;SDS011;42885;49.754;18.636;2022-07-06T01:12:52;36.85;;;31.87;;
56991;SDS011;42885;49.754;18.636;2022-07-06T01:15:25;35.73;;;31.75;;
56991;SDS011;42885;49.754;18.636;2022-07-06T01:17:56;36.80;;;32.65;;
56991;SDS011;42885;49.754;18.636;2022-07-06T01:20:30;37.90;;;32.45;;
56991;SDS011;42885;49.754;18.636;2022-07-06T01:23:01;41.68;;;34.38;;
56991;SDS011;42885;49.754;18.636;2022-07-06T01:25:32;38.13;;;33.15;;
56991;SDS011;42885;49.754;18.636;2022-07-06T01:28:03;41.73;;;34.48;;
56991;SDS011;42885;49.754;18.636;2022-07-06T01:30:34;38.13;;;33.98;;
56991;SDS011;42885;49.754;18.636;2022-07-06T01:33:05;38.42;;;33.85;;
56991;SDS011;42885;49.754;18.636;2022-07-06T01:35:36;38.80;;;33.33;;
56991;SDS011;42885;49.754;18.636;2022-07-06T01:38:08;39.60;;;33.93;;
56991;SDS011;42885;49.754;18.636;2022-07-06T01:40:39;38.73;;;32.45;;
56991;SDS011;42885;49.754;18.636;2022-07-06T01:43:11;37.75;;;33.63;;
56991;SDS011;42885;49.754;18.636;2022-07-06T01:45:42;36.38;;;32.55;;
56991;SDS011;42885;49.754;18.636;2022-07-06T01:48:13;41.80;;;33.48;;
56991;SDS011;42885;49.754;18.636;2022-07-06T01:50:45;37.73;;;33.48;;
56991;SDS011;42885;49.754;18.636;2022-07-06T01:53:16;39.90;;;35.05;;
56991;SDS011;42885;49.754;18.636;2022-07-06T01:55:47;37.73;;;33.42;;
56991;SDS011;42885;49.754;18.636;2022-07-06T01:58:18;37.78;;;30.92;;
56991;SDS011;42885;49.754;18.636;2022-07-06T02:00:49;40.17;;;31.15;;
56991;SDS011;42885;49.754;18.636;2022-07-06T02:03:20;36.10;;;31.93;;
56991;SDS011;42885;49.754;18.636;2022-07-06T02:05:51;33.98;;;30.35;;
56991;SDS011;42885;49.754;18.636;2022-07-06T02:08:22;31.73;;;28.17;;
56991;SDS011;42885;49.754;18.636;2022-07-06T02:10:53;31.60;;;27.80;;
56991;SDS011;42885;49.754;18.636;2022-07-06T02:13:24;38.33;;;31.12;;
56991;SDS011;42885;49.754;18.636;2022-07-06T02:15:56;28.10;;;24.32;;
56991;SDS011;42885;49.754;18.636;2022-07-06T02:18:27;27.00;;;24.07;;
56991;SDS011;42885;49.754;18.636;2022-07-06T02:20:58;28.30;;;25.48;;
56991;SDS011;42885;49.754;18.636;2022-07-06T02:23:29;31.80;;;25.57;;
56991;SDS011;42885;49.754;18.636;2022-07-06T02:26:01;30.75;;;26.27;;
56991;SDS011;42885;49.754;18.636;2022-07-06T02:28:33;32.55;;;26.97;;
56991;SDS011;42885;49.754;18.636;2022-07-06T02:31:05;31.57;;;28.35;;
56991;SDS011;42885;49.754;18.636;2022-07-06T02:33:36;31.93;;;28.50;;
56991;SDS011;42885;49.754;18.636;2022-07-06T02:36:07;36.00;;;29.52;;
56991;SDS011;42885;49.754;18.636;2022-07-06T02:38:38;35.10;;;28.60;;
56991;SDS011;42885;49.754;18.636;2022-07-06T02:41:10;32.33;;;28.50;;
56991;SDS011;42885;49.754;18.636;2022-07-06T02:43:41;31.85;;;27.77;;
56991;SDS011;42885;49.754;18.636;2022-07-06T02:46:12;31.15;;;27.85;;
56991;SDS011;42885;49.754;18.636;2022-07-06T02:48:44;34.70;;;29.90;;
56991;SDS011;42885;49.754;18.636;2022-07-06T02:51:15;34.83;;;29.67;;
56991;SDS011;42885;49.754;18.636;2022-07-06T02:53:46;35.20;;;30.43;;
56991;SDS011;42885;49.754;18.636;2022-07-06T02:56:17;35.35;;;30.12;;
56991;SDS011;42885;49.754;18.636;2022-07-06T02:58:48;32.95;;;29.30;;
56991;SDS011;42885;49.754;18.636;2022-07-06T03:01:19;36.80;;;30.05;;
56991;SDS011;42885;49.754;18.636;2022-07-06T03:03:50;34.45;;;29.98;;
56991;SDS011;42885;49.754;18.636;2022-07-06T03:06:21;35.33;;;29.25;;
56991;SDS011;42885;49.754;18.636;2022-07-06T03:08:52;33.75;;;29.67;;
56991;SDS011;42885;49.754;18.636;2022-07-06T03:11:23;35.40;;;28.45;;
56991;SDS011;42885;49.754;18.636;2022-07-06T03:13:54;37.20;;;29.00;;
56991;SDS011;42885;49.754;18.636;2022-07-06T03:16:25;33.50;;;28.47;;
56991;SDS011;42885;49.754;18.636;2022-07-06T03:18:57;34.10;;;28.10;;
56991;SDS011;42885;49.754;18.636;2022-07-06T03:21:28;33.48;;;27.35;;
56991;SDS011;42885;49.754;18.636;2022-07-06T03:23:59;28.75;;;25.75;;
56991;SDS011;42885;49.754;18.636;2022-07-06T03:26:31;29.70;;;26.52;;
56991;SDS011;42885;49.754;18.636;2022-07-06T03:29:03;28.77;;;25.62;;
56991;SDS011;42885;49.754;18.636;2022-07-06T03:31:34;28.62;;;25.65;;
56991;SDS011;42885;49.754;18.636;2022-07-06T03:34:05;28.73;;;25.52;;
56991;SDS011;42885;49.754;18.636;2022-07-06T03:36:37;29.00;;;24.75;;
56991;SDS011;42885;49.754;18.636;2022-07-06T03:39:09;29.25;;;25.85;;
56991;SDS011;42885;49.754;18.636;2022-07-06T03:41:40;28.23;;;25.17;;
56991;SDS011;42885;49.754;18.636;2022-07-06T03:44:11;28.00;;;24.77;;
56991;SDS011;42885;49.754;18.636;2022-07-06T03:46:42;30.72;;;25.15;;
56991;SDS011;42885;49.754;18.636;2022-07-06T03:49:13;32.98;;;26.50;;
56991;SDS011;42885;49.754;18.636;2022-07-06T03:51:44;28.92;;;25.43;;
56991;SDS011;42885;49.754;18.636;2022-07-06T03:54:16;28.45;;;25.55;;
56991;SDS011;42885;49.754;18.636;2022-07-06T03:56:48;30.70;;;26.37;;
56991;SDS011;42885;49.754;18.636;2022-07-06T03:59:18;30.92;;;26.55;;
56991;SDS011;42885;49.754;18.636;2022-07-06T04:01:50;32.63;;;27.85;;
56991;SDS011;42885;49.754;18.636;2022-07-06T04:04:21;31.75;;;27.62;;
56991;SDS011;42885;49.754;18.636;2022-07-06T04:06:52;33.40;;;29.72;;
56991;SDS011;42885;49.754;18.636;2022-07-06T04:09:24;32.48;;;29.00;;
56991;SDS011;42885;49.754;18.636;2022-07-06T04:11:55;37.13;;;30.23;;
56991;SDS011;42885;49.754;18.636;2022-07-06T04:14:27;37.45;;;30.68;;
56991;SDS011;42885;49.754;18.636;2022-07-06T04:16:58;41.33;;;30.82;;
56991;SDS011;42885;49.754;18.636;2022-07-06T04:19:31;35.80;;;30.73;;
56991;SDS011;42885;49.754;18.636;2022-07-06T04:22:02;38.10;;;30.68;;
56991;SDS011;42885;49.754;18.636;2022-07-06T04:24:33;35.63;;;29.18;;
56991;SDS011;42885;49.754;18.636;2022-07-06T04:27:04;37.17;;;30.15;;
56991;SDS011;42885;49.754;18.636;2022-07-06T04:29:35;34.63;;;27.82;;
56991;SDS011;42885;49.754;18.636;2022-07-06T04:32:07;31.02;;;27.65;;
56991;SDS011;42885;49.754;18.636;2022-07-06T04:34:38;32.93;;;27.00;;
56991;SDS011;42885;49.754;18.636;2022-07-06T04:37:10;33.70;;;27.48;;
56991;SDS011;42885;49.754;18.636;2022-07-06T04:39:41;29.40;;;26.23;;
56991;SDS011;42885;49.754;18.636;2022-07-06T04:42:12;28.47;;;25.23;;
56991;SDS011;42885;49.754;18.636;2022-07-06T04:44:43;28.65;;;24.95;;
56991;SDS011;42885;49.754;18.636;2022-07-06T04:47:14;31.48;;;24.35;;
56991;SDS011;42885;49.754;18.636;2022-07-06T04:49:46;30.85;;;23.95;;
56991;SDS011;42885;49.754;18.636;2022-07-06T04:52:17;31.33;;;23.32;;
56991;SDS011;42885;49.754;18.636;2022-07-06T04:54:48;27.15;;;24.18;;
56991;SDS011;42885;49.754;18.636;2022-07-06T04:57:19;34.73;;;24.60;;
56991;SDS011;42885;49.754;18.636;2022-07-06T04:59:50;151.95;;;136.22;;
56991;SDS011;42885;49.754;18.636;2022-07-06T05:02:21;27.17;;;23.87;;
56991;SDS011;42885;49.754;18.636;2022-07-06T05:04:53;26.12;;;22.67;;
56991;SDS011;42885;49.754;18.636;2022-07-06T05:07:24;27.93;;;23.52;;
56991;SDS011;42885;49.754;18.636;2022-07-06T05:10:00;27.20;;;22.55;;
56991;SDS011;42885;49.754;18.636;2022-07-06T05:12:32;26.55;;;21.57;;
56991;SDS011;42885;49.754;18.636;2022-07-06T05:15:04;28.62;;;20.97;;
56991;SDS011;42885;49.754;18.636;2022-07-06T05:17:36;25.25;;;20.75;;
56991;SDS011;42885;49.754;18.636;2022-07-06T05:20:07;27.22;;;21.77;;
56991;SDS011;42885;49.754;18.636;2022-07-06T05:22:40;26.90;;;21.60;;
56991;SDS011;42885;49.754;18.636;2022-07-06T05:25:11;25.32;;;22.13;;
56991;SDS011;42885;49.754;18.636;2022-07-06T05:27:43;26.30;;;21.12;;
56991;SDS011;42885;49.754;18.636;2022-07-06T05:30:14;26.33;;;21.62;;
56991;SDS011;42885;49.754;18.636;2022-07-06T05:32:45;26.33;;;20.62;;
56991;SDS011;42885;49.754;18.636;2022-07-06T05:35:16;22.37;;;20.02;;
56991;SDS011;42885;49.754;18.636;2022-07-06T05:37:47;24.23;;;19.15;;
56991;SDS011;42885;49.754;18.636;2022-07-06T05:40:18;21.52;;;19.02;;
56991;SDS011;42885;49.754;18.636;2022-07-06T05:42:49;30.45;;;19.67;;
56991;SDS011;42885;49.754;18.636;2022-07-06T05:45:21;25.10;;;18.95;;
56991;SDS011;42885;49.754;18.636;2022-07-06T05:47:52;21.70;;;18.87;;
56991;SDS011;42885;49.754;18.636;2022-07-06T05:50:41;21.93;;;18.95;;
56991;SDS011;42885;49.754;18.636;2022-07-06T05:53:12;81.50;;;37.20;;
56991;SDS011;42885;49.754;18.636;2022-07-06T05:55:44;40.05;;;21.77;;
56991;SDS011;42885;49.754;18.636;2022-07-06T05:58:16;22.10;;;18.27;;
56991;SDS011;42885;49.754;18.636;2022-07-06T06:00:47;19.90;;;17.55;;
56991;SDS011;42885;49.754;18.636;2022-07-06T06:03:20;26.87;;;19.60;;
56991;SDS011;42885;49.754;18.636;2022-07-06T06:05:51;25.92;;;19.85;;
56991;SDS011;42885;49.754;18.636;2022-07-06T06:08:23;24.77;;;18.65;;
56991;SDS011;42885;49.754;18.636;2022-07-06T06:10:54;18.42;;;16.52;;
56991;SDS011;42885;49.754;18.636;2022-07-06T06:13:26;18.42;;;15.55;;
56991;SDS011;42885;49.754;18.636;2022-07-06T06:15:57;21.37;;;15.70;;
56991;SDS011;42885;49.754;18.636;2022-07-06T06:18:28;24.43;;;15.98;;
56991;SDS011;42885;49.754;18.636;2022-07-06T06:20:59;17.15;;;15.35;;
56991;SDS011;42885;49.754;18.636;2022-07-06T06:23:30;47.90;;;22.10;;
56991;SDS011;42885;49.754;18.636;2022-07-06T06:26:01;20.55;;;15.18;;
56991;SDS011;42885;49.754;18.636;2022-07-06T06:28:32;20.48;;;14.47;;
56991;SDS011;42885;49.754;18.636;2022-07-06T06:31:04;15.80;;;13.48;;
56991;SDS011;42885;49.754;18.636;2022-07-06T06:33:35;19.73;;;14.50;;
56991;SDS011;42885;49.754;18.636;2022-07-06T06:36:06;18.42;;;13.88;;
56991;SDS011;42885;49.754;18.636;2022-07-06T06:38:38;15.48;;;13.88;;
56991;SDS011;42885;49.754;18.636;2022-07-06T06:41:08;19.35;;;14.78;;
56991;SDS011;42885;49.754;18.636;2022-07-06T06:43:39;29.12;;;26.23;;
56991;SDS011;42885;49.754;18.636;2022-07-06T06:46:15;16.93;;;15.13;;
56991;SDS011;42885;49.754;18.636;2022-07-06T06:48:46;16.73;;;14.87;;
56991;SDS011;42885;49.754;18.636;2022-07-06T06:51:17;17.73;;;15.60;;
56991;SDS011;42885;49.754;18.636;2022-07-06T06:53:49;17.65;;;15.95;;
56991;SDS011;42885;49.754;18.636;2022-07-06T06:56:20;21.30;;;16.90;;
56991;SDS011;42885;49.754;18.636;2022-07-06T06:58:51;22.80;;;16.52;;
56991;SDS011;42885;49.754;18.636;2022-07-06T07:01:23;19.57;;;16.57;;
56991;SDS011;42885;49.754;18.636;2022-07-06T07:03:54;18.15;;;15.45;;
56991;SDS011;42885;49.754;18.636;2022-07-06T07:06:25;18.30;;;14.78;;
56991;SDS011;42885;49.754;18.636;2022-07-06T07:08:55;16.57;;;13.65;;
56991;SDS011;42885;49.754;18.636;2022-07-06T07:11:26;17.85;;;13.65;;
56991;SDS011;42885;49.754;18.636;2022-07-06T07:13:57;13.65;;;11.48;;
56991;SDS011;42885;49.754;18.636;2022-07-06T07:16:29;13.95;;;10.23;;
56991;SDS011;42885;49.754;18.636;2022-07-06T07:19:00;16.37;;;8.93;;
56991;SDS011;42885;49.754;18.636;2022-07-06T07:21:33;12.67;;;7.53;;
56991;SDS011;42885;49.754;18.636;2022-07-06T07:24:04;15.83;;;8.38;;
56991;SDS011;42885;49.754;18.636;2022-07-06T07:29:07;10.38;;;6.08;;
56991;SDS011;42885;49.754;18.636;2022-07-06T07:31:38;10.10;;;6.42;;
56991;SDS011;42885;49.754;18.636;2022-07-06T07:34:09;15.18;;;6.28;;
56991;SDS011;42885;49.754;18.636;2022-07-06T07:36:40;6.33;;;4.95;;
56991;SDS011;42885;49.754;18.636;2022-07-06T07:39:11;10.70;;;4.62;;
56991;SDS011;42885;49.754;18.636;2022-07-06T07:41:41;7.25;;;4.50;;
56991;SDS011;42885;49.754;18.636;2022-07-06T07:44:12;8.18;;;4.60;;
56991;SDS011;42885;49.754;18.636;2022-07-06T07:46:43;8.33;;;4.00;;
56991;SDS011;42885;49.754;18.636;2022-07-06T07:49:14;8.30;;;4.15;;
56991;SDS011;42885;49.754;18.636;2022-07-06T07:51:45;7.22;;;3.98;;
56991;SDS011;42885;49.754;18.636;2022-07-06T07:54:16;8.03;;;4.10;;
56991;SDS011;42885;49.754;18.636;2022-07-06T07:56:47;12.30;;;5.60;;
56991;SDS011;42885;49.754;18.636;2022-07-06T07:59:18;17.62;;;6.10;;
56991;SDS011;42885;49.754;18.636;2022-07-06T08:01:49;15.80;;;5.85;;
56991;SDS011;42885;49.754;18.636;2022-07-06T08:04:20;7.60;;;3.92;;
56991;SDS011;42885;49.754;18.636;2022-07-06T08:06:52;7.90;;;4.53;;
56991;SDS011;42885;49.754;18.636;2022-07-06T08:09:23;13.15;;;4.65;;
56991;SDS011;42885;49.754;18.636;2022-07-06T08:11:54;7.05;;;3.92;;
56991;SDS011;42885;49.754;18.636;2022-07-06T08:14:25;14.35;;;4.55;;
56991;SDS011;42885;49.754;18.636;2022-07-06T08:16:56;6.37;;;3.55;;
56991;SDS011;42885;49.754;18.636;2022-07-06T08:19:27;7.80;;;3.98;;
56991;SDS011;42885;49.754;18.636;2022-07-06T08:21:59;19.70;;;5.78;;
56991;SDS011;42885;49.754;18.636;2022-07-06T08:24:32;4.13;;;3.00;;
56991;SDS011;42885;49.754;18.636;2022-07-06T08:27:04;6.28;;;2.90;;
56991;SDS011;42885;49.754;18.636;2022-07-06T08:29:35;7.15;;;3.30;;
56991;SDS011;42885;49.754;18.636;2022-07-06T08:32:06;8.13;;;5.95;;
56991;SDS011;42885;49.754;18.636;2022-07-06T08:34:37;6.78;;;3.20;;
56991;SDS011;42885;49.754;18.636;2022-07-06T08:37:08;8.85;;;3.20;;
56991;SDS011;42885;49.754;18.636;2022-07-06T08:39:39;4.20;;;2.80;;
56991;SDS011;42885;49.754;18.636;2022-07-06T08:42:10;4.72;;;2.65;;
56991;SDS011;42885;49.754;18.636;2022-07-06T08:44:42;4.85;;;3.00;;
56991;SDS011;42885;49.754;18.636;2022-07-06T08:47:14;3.62;;;2.30;;
56991;SDS011;42885;49.754;18.636;2022-07-06T08:49:47;4.60;;;2.40;;
56991;SDS011;42885;49.754;18.636;2022-07-06T08:52:18;3.10;;;2.30;;
56991;SDS011;42885;49.754;18.636;2022-07-06T08:54:49;3.70;;;2.30;;
56991;SDS011;42885;49.754;18.636;2022-07-06T08:57:20;5.55;;;2.35;;
56991;SDS011;42885;49.754;18.636;2022-07-06T08:59:52;6.20;;;4.03;;
56991;SDS011;42885;49.754;18.636;2022-07-06T09:02:24;2.72;;;2.35;;
56991;SDS011;42885;49.754;18.636;2022-07-06T09:04:55;7.85;;;2.45;;
56991;SDS011;42885;49.754;18.636;2022-07-06T09:07:27;2.85;;;2.30;;
56991;SDS011;42885;49.754;18.636;2022-07-06T09:09:59;5.20;;;2.37;;
56991;SDS011;42885;49.754;18.636;2022-07-06T09:12:30;3.10;;;2.25;;
56991;SDS011;42885;49.754;18.636;2022-07-06T09:15:01;7.30;;;2.70;;
56991;SDS011;42885;49.754;18.636;2022-07-06T09:17:32;8.80;;;3.83;;
56991;SDS011;42885;49.754;18.636;2022-07-06T09:20:06;7.33;;;3.00;;
56991;SDS011;42885;49.754;18.636;2022-07-06T09:22:38;4.80;;;2.87;;
56991;SDS011;42885;49.754;18.636;2022-07-06T09:25:10;5.10;;;2.90;;
56991;SDS011;42885;49.754;18.636;2022-07-06T09:30:15;11.03;;;3.87;;
56991;SDS011;42885;49.754;18.636;2022-07-06T09:32:48;7.05;;;3.45;;
56991;SDS011;42885;49.754;18.636;2022-07-06T09:38:01;6.22;;;2.72;;
56991;SDS011;42885;49.754;18.636;2022-07-06T09:40:34;9.00;;;3.45;;
56991;SDS011;42885;49.754;18.636;2022-07-06T09:45:52;6.50;;;2.98;;
56991;SDS011;42885;49.754;18.636;2022-07-06T09:48:25;2.60;;;2.12;;
56991;SDS011;42885;49.754;18.636;2022-07-06T09:50:58;4.95;;;2.27;;
56991;SDS011;42885;49.754;18.636;2022-07-06T09:53:34;5.62;;;2.27;;
56991;SDS011;42885;49.754;18.636;2022-07-06T09:56:05;2.52;;;2.30;;
56991;SDS011;42885;49.754;18.636;2022-07-06T09:58:38;5.37;;;2.27;;
56991;SDS011;42885;49.754;18.636;2022-07-06T10:01:08;6.30;;;2.30;;
56991;SDS011;42885;49.754;18.636;2022-07-06T10:03:39;4.30;;;2.40;;
56991;SDS011;42885;49.754;18.636;2022-07-06T10:06:11;2.45;;;2.10;;
56991;SDS011;42885;49.754;18.636;2022-07-06T10:08:42;4.20;;;2.58;;
56991;SDS011;42885;49.754;18.636;2022-07-06T10:11:14;3.58;;;1.98;;
56991;SDS011;42885;49.754;18.636;2022-07-06T10:13:46;3.35;;;2.02;;
56991;SDS011;42885;49.754;18.636;2022-07-06T10:16:20;5.20;;;2.50;;
56991;SDS011;42885;49.754;18.636;2022-07-06T10:18:53;2.22;;;1.75;;
56991;SDS011;42885;49.754;18.636;2022-07-06T10:21:25;3.92;;;2.20;;
56991;SDS011;42885;49.754;18.636;2022-07-06T10:23:56;1.85;;;1.72;;
56991;SDS011;42885;49.754;18.636;2022-07-06T10:26:29;2.35;;;1.82;;
56991;SDS011;42885;49.754;18.636;2022-07-06T10:29:04;6.65;;;2.58;;
56991;SDS011;42885;49.754;18.636;2022-07-06T10:31:37;3.35;;;2.10;;
56991;SDS011;42885;49.754;18.636;2022-07-06T10:34:11;2.77;;;1.70;;
56991;SDS011;42885;49.754;18.636;2022-07-06T10:36:44;2.70;;;1.62;;
56991;SDS011;42885;49.754;18.636;2022-07-06T10:39:33;22.67;;;13.62;;
56991;SDS011;42885;49.754;18.636;2022-07-06T10:42:41;4.92;;;2.60;;
56991;SDS011;42885;49.754;18.636;2022-07-06T10:45:15;3.30;;;2.20;;
56991;SDS011;42885;49.754;18.636;2022-07-06T10:47:47;4.53;;;2.72;;
56991;SDS011;42885;49.754;18.636;2022-07-06T10:50:20;6.57;;;3.60;;
56991;SDS011;42885;49.754;18.636;2022-07-06T10:52:51;7.25;;;5.42;;
56991;SDS011;42885;49.754;18.636;2022-07-06T10:55:37;8.53;;;6.50;;
56991;SDS011;42885;49.754;18.636;2022-07-06T10:58:03;7.47;;;6.72;;
56991;SDS011;42885;49.754;18.636;2022-07-06T11:00:53;8.63;;;6.43;;
56991;SDS011;42885;49.754;18.636;2022-07-06T11:03:31;11.03;;;6.62;;
56991;SDS011;42885;49.754;18.636;2022-07-06T11:06:20;7.58;;;6.50;;
56991;SDS011;42885;49.754;18.636;2022-07-06T11:08:56;8.63;;;6.30;;
56991;SDS011;42885;49.754;18.636;2022-07-06T11:14:05;8.45;;;6.15;;
56991;SDS011;42885;49.754;18.636;2022-07-06T11:19:21;8.50;;;5.20;;
56991;SDS011;42885;49.754;18.636;2022-07-06T11:22:05;9.03;;;5.33;;
56991;SDS011;42885;49.754;18.636;2022-07-06T11:24:29;5.60;;;4.12;;
56991;SDS011;42885;49.754;18.636;2022-07-06T11:27:03;7.67;;;4.75;;
56991;SDS011;42885;49.754;18.636;2022-07-06T11:32:08;6.08;;;5.20;;
56991;SDS011;42885;49.754;18.636;2022-07-06T11:34:41;8.55;;;7.00;;
56991;SDS011;42885;49.754;18.636;2022-07-06T11:37:13;5.33;;;3.80;;
56991;SDS011;42885;49.754;18.636;2022-07-06T11:39:47;4.60;;;3.27;;
56991;SDS011;42885;49.754;18.636;2022-07-06T11:42:18;5.85;;;3.50;;
56991;SDS011;42885;49.754;18.636;2022-07-06T11:44:49;3.90;;;3.00;;
56991;SDS011;42885;49.754;18.636;2022-07-06T11:47:29;6.63;;;3.40;;
56991;SDS011;42885;49.754;18.636;2022-07-06T11:49:55;22.32;;;8.53;;
56991;SDS011;42885;49.754;18.636;2022-07-06T11:52:26;4.83;;;3.67;;
56991;SDS011;42885;49.754;18.636;2022-07-06T11:54:58;4.37;;;3.53;;
56991;SDS011;42885;49.754;18.636;2022-07-06T11:57:30;6.42;;;3.58;;
56991;SDS011;42885;49.754;18.636;2022-07-06T12:00:04;5.95;;;3.62;;
56991;SDS011;42885;49.754;18.636;2022-07-06T12:02:37;7.37;;;3.67;;
56991;SDS011;42885;49.754;18.636;2022-07-06T12:05:08;5.78;;;3.55;;
56991;SDS011;42885;49.754;18.636;2022-07-06T12:07:39;5.95;;;3.80;;
56991;SDS011;42885;49.754;18.636;2022-07-06T12:10:10;5.37;;;3.65;;
56991;SDS011;42885;49.754;18.636;2022-07-06T12:12:41;4.28;;;2.87;;
56991;SDS011;42885;49.754;18.636;2022-07-06T12:15:12;5.00;;;3.20;;
56991;SDS011;42885;49.754;18.636;2022-07-06T12:17:47;3.60;;;3.20;;
56991;SDS011;42885;49.754;18.636;2022-07-06T12:20:18;8.03;;;3.33;;
56991;SDS011;42885;49.754;18.636;2022-07-06T12:22:49;5.47;;;3.35;;
56991;SDS011;42885;49.754;18.636;2022-07-06T12:25:33;5.97;;;4.30;;
56991;SDS011;42885;49.754;18.636;2022-07-06T12:28:21;9.05;;;6.20;;
56991;SDS011;42885;49.754;18.636;2022-07-06T12:30:52;3.40;;;2.92;;
56991;SDS011;42885;49.754;18.636;2022-07-06T12:33:23;4.00;;;2.72;;
56991;SDS011;42885;49.754;18.636;2022-07-06T12:35:56;5.22;;;2.90;;
56991;SDS011;42885;49.754;18.636;2022-07-06T12:38:27;4.78;;;2.80;;
56991;SDS011;42885;49.754;18.636;2022-07-06T12:40:59;3.65;;;2.85;;
56991;SDS011;42885;49.754;18.636;2022-07-06T12:43:39;3.08;;;2.17;;
56991;SDS011;42885;49.754;18.636;2022-07-06T12:46:27;3.10;;;2.50;;
56991;SDS011;42885;49.754;18.636;2022-07-06T12:49:04;3.67;;;2.15;;
56991;SDS011;42885;49.754;18.636;2022-07-06T12:52:30;2.10;;;1.90;;
56991;SDS011;42885;49.754;18.636;2022-07-06T12:54:31;2.85;;;2.10;;
56991;SDS011;42885;49.754;18.636;2022-07-06T12:57:17;3.65;;;1.90;;
56991;SDS011;42885;49.754;18.636;2022-07-06T13:02:29;6.08;;;1.72;;
56991;SDS011;42885;49.754;18.636;2022-07-06T13:05:06;2.37;;;1.77;;
56991;SDS011;42885;49.754;18.636;2022-07-06T13:07:43;4.67;;;1.60;;
56991;SDS011;42885;49.754;18.636;2022-07-06T13:10:15;2.95;;;2.05;;
56991;SDS011;42885;49.754;18.636;2022-07-06T13:12:45;2.65;;;2.45;;
56991;SDS011;42885;49.754;18.636;2022-07-06T13:15:17;1.65;;;1.55;;
56991;SDS011;42885;49.754;18.636;2022-07-06T13:17:48;3.90;;;1.80;;
56991;SDS011;42885;49.754;18.636;2022-07-06T13:20:19;1.80;;;1.70;;
56991;SDS011;42885;49.754;18.636;2022-07-06T13:22:50;1.67;;;1.40;;
56991;SDS011;42885;49.754;18.636;2022-07-06T13:25:21;2.37;;;1.50;;
56991;SDS011;42885;49.754;18.636;2022-07-06T13:27:53;1.85;;;1.70;;
56991;SDS011;42885;49.754;18.636;2022-07-06T13:30:24;1.67;;;1.40;;
56991;SDS011;42885;49.754;18.636;2022-07-06T13:32:54;2.15;;;1.40;;
56991;SDS011;42885;49.754;18.636;2022-07-06T13:35:27;1.40;;;1.30;;
56991;SDS011;42885;49.754;18.636;2022-07-06T13:37:58;4.97;;;1.67;;
56991;SDS011;42885;49.754;18.636;2022-07-06T13:40:30;1.60;;;1.50;;
56991;SDS011;42885;49.754;18.636;2022-07-06T13:43:03;3.67;;;1.30;;
56991;SDS011;42885;49.754;18.636;2022-07-06T13:45:34;2.65;;;1.35;;
56991;SDS011;42885;49.754;18.636;2022-07-06T13:48:05;1.60;;;1.45;;
56991;SDS011;42885;49.754;18.636;2022-07-06T13:50:36;3.92;;;1.20;;
56991;SDS011;42885;49.754;18.636;2022-07-06T13:53:09;2.00;;;1.10;;
56991;SDS011;42885;49.754;18.636;2022-07-06T13:55:40;4.40;;;1.30;;
56991;SDS011;42885;49.754;18.636;2022-07-06T13:58:11;1.45;;;1.35;;
56991;SDS011;42885;49.754;18.636;2022-07-06T14:00:43;2.27;;;1.35;;
56991;SDS011;42885;49.754;18.636;2022-07-06T14:03:14;1.05;;;1.05;;
56991;SDS011;42885;49.754;18.636;2022-07-06T14:05:45;1.72;;;1.17;;
56991;SDS011;42885;49.754;18.636;2022-07-06T14:08:16;1.40;;;1.12;;
56991;SDS011;42885;49.754;18.636;2022-07-06T14:10:46;4.30;;;1.20;;
56991;SDS011;42885;49.754;18.636;2022-07-06T14:13:17;2.70;;;1.10;;
56991;SDS011;42885;49.754;18.636;2022-07-06T14:15:49;1.42;;;1.10;;
56991;SDS011;42885;49.754;18.636;2022-07-06T14:18:20;3.20;;;1.22;;
56991;SDS011;42885;49.754;18.636;2022-07-06T14:20:51;2.62;;;1.20;;
56991;SDS011;42885;49.754;18.636;2022-07-06T14:23:23;3.42;;;1.35;;
56991;SDS011;42885;49.754;18.636;2022-07-06T14:25:54;2.87;;;1.00;;
56991;SDS011;42885;49.754;18.636;2022-07-06T14:28:25;1.53;;;1.00;;
56991;SDS011;42885;49.754;18.636;2022-07-06T14:30:56;2.35;;;1.10;;
56991;SDS011;42885;49.754;18.636;2022-07-06T14:33:29;1.10;;;1.00;;
56991;SDS011;42885;49.754;18.636;2022-07-06T14:36:00;3.43;;;0.90;;
56991;SDS011;42885;49.754;18.636;2022-07-06T14:38:31;2.37;;;0.98;;
56991;SDS011;42885;49.754;18.636;2022-07-06T14:41:03;1.32;;;1.10;;
56991;SDS011;42885;49.754;18.636;2022-07-06T14:43:34;1.00;;;0.90;;
56991;SDS011;42885;49.754;18.636;2022-07-06T14:46:05;2.17;;;1.10;;
56991;SDS011;42885;49.754;18.636;2022-07-06T14:48:36;0.82;;;0.82;;
56991;SDS011;42885;49.754;18.636;2022-07-06T14:51:07;25.05;;;23.12;;
56991;SDS011;42885;49.754;18.636;2022-07-06T14:53:38;10.08;;;9.25;;
56991;SDS011;42885;49.754;18.636;2022-07-06T14:56:09;2.45;;;2.25;;
56991;SDS011;42885;49.754;18.636;2022-07-06T14:58:40;1.72;;;1.52;;
56991;SDS011;42885;49.754;18.636;2022-07-06T15:01:11;1.10;;;0.98;;
56991;SDS011;42885;49.754;18.636;2022-07-06T15:03:42;1.20;;;1.10;;
56991;SDS011;42885;49.754;18.636;2022-07-06T15:06:13;1.82;;;1.10;;
56991;SDS011;42885;49.754;18.636;2022-07-06T15:08:44;1.22;;;1.12;;
56991;SDS011;42885;49.754;18.636;2022-07-06T15:11:16;2.42;;;1.70;;